sensor_id;sensor_type;location;lat;lon;timestamp;pressure;altitude;pressure_sealevel;temperature;humidity
57594;BME280;43423;46.510;6.686;2023-08-06T00:00:24;96123.66;;;17.93;57.79
57594;BME280;43423;46.510;6.686;2023-08-06T00:03:10;96114.13;;;17.89;57.83
57594;BME280;43423;46.510;6.686;2023-08-06T00:05:35;96116.81;;;17.94;57.77
57594;BME280;43423;46.510;6.686;2023-08-06T00:08:01;96116.56;;;17.92;58.34
57594;BME280;43423;46.510;6.686;2023-08-06T00:10:27;96115.63;;;17.90;58.59
57594;BME280;43423;46.510;6.686;2023-08-06T00:12:53;96108.03;;;17.90;57.41
57594;BME280;43423;46.510;6.686;2023-08-06T00:15:19;96104.19;;;17.93;57.98
57594;BME280;43423;46.510;6.686;2023-08-06T00:17:45;96107.28;;;17.90;58.80
57594;BME280;43423;46.510;6.686;2023-08-06T00:20:10;96108.03;;;17.90;57.50
57594;BME280;43423;46.510;6.686;2023-08-06T00:22:37;96108.56;;;17.89;57.49
57594;BME280;43423;46.510;6.686;2023-08-06T00:25:04;96100.41;;;17.91;56.50
57594;BME280;43423;46.510;6.686;2023-08-06T00:27:30;96085.66;;;17.82;56.71
57594;BME280;43423;46.510;6.686;2023-08-06T00:29:58;96087.28;;;17.78;57.13
57594;BME280;43423;46.510;6.686;2023-08-06T00:32:24;96085.34;;;17.73;58.04
57594;BME280;43423;46.510;6.686;2023-08-06T00:34:49;96091.47;;;17.71;57.83
57594;BME280;43423;46.510;6.686;2023-08-06T00:37:16;96105.44;;;17.66;57.70
57594;BME280;43423;46.510;6.686;2023-08-06T00:39:42;96103.34;;;17.72;59.16
57594;BME280;43423;46.510;6.686;2023-08-06T00:42:09;96106.19;;;17.66;59.36
57594;BME280;43423;46.510;6.686;2023-08-06T00:44:37;96097.31;;;17.68;59.39
57594;BME280;43423;46.510;6.686;2023-08-06T00:47:03;96080.41;;;17.66;59.42
57594;BME280;43423;46.510;6.686;2023-08-06T00:49:29;96088.00;;;17.65;60.25
57594;BME280;43423;46.510;6.686;2023-08-06T00:51:56;96087.47;;;17.67;61.07
57594;BME280;43423;46.510;6.686;2023-08-06T00:54:22;96090.69;;;17.57;59.75
57594;BME280;43423;46.510;6.686;2023-08-06T00:56:49;96090.22;;;17.53;59.44
57594;BME280;43423;46.510;6.686;2023-08-06T00:59:14;96090.69;;;17.57;60.59
57594;BME280;43423;46.510;6.686;2023-08-06T01:01:40;96092.63;;;17.63;59.32
57594;BME280;43423;46.510;6.686;2023-08-06T01:04:06;96092.50;;;17.55;59.08
57594;BME280;43423;46.510;6.686;2023-08-06T01:06:48;96093.25;;;17.55;58.74
57594;BME280;43423;46.510;6.686;2023-08-06T01:09:45;96104.25;;;17.48;58.38
57594;BME280;43423;46.510;6.686;2023-08-06T01:12:34;96091.41;;;17.45;58.49
57594;BME280;43423;46.510;6.686;2023-08-06T01:15:14;96085.75;;;17.50;58.14
57594;BME280;43423;46.510;6.686;2023-08-06T01:17:40;96085.00;;;17.50;59.03
57594;BME280;43423;46.510;6.686;2023-08-06T01:20:06;96088.00;;;17.52;60.05
57594;BME280;43423;46.510;6.686;2023-08-06T01:22:32;96095.50;;;17.57;59.28
57594;BME280;43423;46.510;6.686;2023-08-06T01:24:57;96088.34;;;17.62;59.37
57594;BME280;43423;46.510;6.686;2023-08-06T01:27:28;96083.63;;;17.56;60.30
57594;BME280;43423;46.510;6.686;2023-08-06T01:30:02;96086.06;;;17.60;60.73
57594;BME280;43423;46.510;6.686;2023-08-06T01:32:32;96087.06;;;17.63;58.54
57594;BME280;43423;46.510;6.686;2023-08-06T01:34:59;96091.31;;;17.64;57.77
57594;BME280;43423;46.510;6.686;2023-08-06T01:37:26;96085.97;;;17.66;58.09
57594;BME280;43423;46.510;6.686;2023-08-06T01:39:52;96081.91;;;17.67;57.64
57594;BME280;43423;46.510;6.686;2023-08-06T01:42:18;96072.50;;;17.56;57.14
57594;BME280;43423;46.510;6.686;2023-08-06T01:44:43;96074.22;;;17.59;58.74
57594;BME280;43423;46.510;6.686;2023-08-06T01:47:09;96066.31;;;17.64;59.28
57594;BME280;43423;46.510;6.686;2023-08-06T01:49:35;96071.13;;;17.63;59.28
57594;BME280;43423;46.510;6.686;2023-08-06T01:52:00;96066.50;;;17.52;58.30
57594;BME280;43423;46.510;6.686;2023-08-06T01:54:26;96070.91;;;17.48;58.56
57594;BME280;43423;46.510;6.686;2023-08-06T01:56:53;96068.75;;;17.41;58.85
57594;BME280;43423;46.510;6.686;2023-08-06T01:59:18;96079.44;;;17.50;59.35
57594;BME280;43423;46.510;6.686;2023-08-06T02:01:44;96074.53;;;17.43;59.65
57594;BME280;43423;46.510;6.686;2023-08-06T02:04:10;96084.25;;;17.49;58.82
57594;BME280;43423;46.510;6.686;2023-08-06T02:06:35;96079.13;;;17.53;60.39
57594;BME280;43423;46.510;6.686;2023-08-06T02:09:01;96081.25;;;17.34;62.95
57594;BME280;43423;46.510;6.686;2023-08-06T02:11:27;96093.97;;;17.29;64.26
57594;BME280;43423;46.510;6.686;2023-08-06T02:13:53;96076.00;;;17.17;64.79
57594;BME280;43423;46.510;6.686;2023-08-06T02:16:18;96084.09;;;17.02;66.60
57594;BME280;43423;46.510;6.686;2023-08-06T02:18:44;96092.75;;;16.98;68.59
57594;BME280;43423;46.510;6.686;2023-08-06T02:21:09;96099.16;;;17.07;68.09
57594;BME280;43423;46.510;6.686;2023-08-06T02:23:35;96106.56;;;16.85;71.20
57594;BME280;43423;46.510;6.686;2023-08-06T02:26:02;96106.88;;;16.63;73.46
57594;BME280;43423;46.510;6.686;2023-08-06T02:28:28;96086.72;;;16.62;77.60
57594;BME280;43423;46.510;6.686;2023-08-06T02:30:54;96077.56;;;16.48;75.78
57594;BME280;43423;46.510;6.686;2023-08-06T02:33:20;96066.13;;;16.20;77.84
57594;BME280;43423;46.510;6.686;2023-08-06T02:35:45;96069.94;;;16.17;77.80
57594;BME280;43423;46.510;6.686;2023-08-06T02:38:11;96077.53;;;16.16;77.15
57594;BME280;43423;46.510;6.686;2023-08-06T02:40:36;96089.09;;;16.21;76.71
57594;BME280;43423;46.510;6.686;2023-08-06T02:43:07;96074.81;;;16.11;77.40
57594;BME280;43423;46.510;6.686;2023-08-06T02:45:33;96074.59;;;16.09;78.02
57594;BME280;43423;46.510;6.686;2023-08-06T02:47:59;96059.38;;;16.15;77.57
57594;BME280;43423;46.510;6.686;2023-08-06T02:50:25;96067.19;;;15.98;77.05
57594;BME280;43423;46.510;6.686;2023-08-06T02:52:50;96072.41;;;16.02;76.32
57594;BME280;43423;46.510;6.686;2023-08-06T02:55:16;96069.22;;;15.98;75.05
57594;BME280;43423;46.510;6.686;2023-08-06T02:57:41;96067.94;;;15.99;75.41
57594;BME280;43423;46.510;6.686;2023-08-06T03:00:07;96064.25;;;15.90;76.97
57594;BME280;43423;46.510;6.686;2023-08-06T03:02:33;96076.69;;;16.03;76.81
57594;BME280;43423;46.510;6.686;2023-08-06T03:04:58;96072.03;;;16.11;75.21
57594;BME280;43423;46.510;6.686;2023-08-06T03:07:24;96070.94;;;16.01;74.95
57594;BME280;43423;46.510;6.686;2023-08-06T03:09:49;96078.72;;;16.02;74.11
57594;BME280;43423;46.510;6.686;2023-08-06T03:12:15;96075.72;;;16.00;74.65
57594;BME280;43423;46.510;6.686;2023-08-06T03:14:41;96077.97;;;16.02;74.91
57594;BME280;43423;46.510;6.686;2023-08-06T03:17:06;96075.88;;;16.08;76.16
57594;BME280;43423;46.510;6.686;2023-08-06T03:19:32;96068.63;;;16.05;74.99
57594;BME280;43423;46.510;6.686;2023-08-06T03:21:58;96070.78;;;16.12;77.07
57594;BME280;43423;46.510;6.686;2023-08-06T03:24:23;96070.00;;;16.11;75.74
57594;BME280;43423;46.510;6.686;2023-08-06T03:26:49;96080.59;;;16.13;75.14
57594;BME280;43423;46.510;6.686;2023-08-06T03:29:14;96081.41;;;16.08;74.50
57594;BME280;43423;46.510;6.686;2023-08-06T03:31:40;96085.47;;;16.07;75.78
57594;BME280;43423;46.510;6.686;2023-08-06T03:34:05;96089.22;;;16.09;74.70
57594;BME280;43423;46.510;6.686;2023-08-06T03:36:31;96087.72;;;15.89;76.16
57594;BME280;43423;46.510;6.686;2023-08-06T03:38:57;96089.44;;;15.93;77.35
57594;BME280;43423;46.510;6.686;2023-08-06T03:41:22;96093.69;;;15.75;76.77
57594;BME280;43423;46.510;6.686;2023-08-06T03:43:48;96097.19;;;15.75;78.02
57594;BME280;43423;46.510;6.686;2023-08-06T03:46:14;96100.56;;;15.68;79.04
57594;BME280;43423;46.510;6.686;2023-08-06T03:48:39;96118.09;;;15.52;79.84
57594;BME280;43423;46.510;6.686;2023-08-06T03:51:05;96122.13;;;15.51;78.79
57594;BME280;43423;46.510;6.686;2023-08-06T03:53:30;96117.28;;;15.32;77.67
57594;BME280;43423;46.510;6.686;2023-08-06T03:55:56;96113.34;;;15.47;79.10
57594;BME280;43423;46.510;6.686;2023-08-06T03:58:25;96109.66;;;15.39;78.09
57594;BME280;43423;46.510;6.686;2023-08-06T04:01:01;96102.59;;;15.38;76.63
57594;BME280;43423;46.510;6.686;2023-08-06T04:03:28;96108.00;;;15.24;77.84
57594;BME280;43423;46.510;6.686;2023-08-06T04:05:54;96107.63;;;15.39;77.57
57594;BME280;43423;46.510;6.686;2023-08-06T04:08:23;96106.53;;;15.48;77.95
57594;BME280;43423;46.510;6.686;2023-08-06T04:10:50;96095.69;;;15.50;77.61
57594;BME280;43423;46.510;6.686;2023-08-06T04:13:16;96095.00;;;15.68;77.40
57594;BME280;43423;46.510;6.686;2023-08-06T04:15:42;96094.03;;;15.66;75.32
57594;BME280;43423;46.510;6.686;2023-08-06T04:18:07;96096.69;;;15.77;76.10
57594;BME280;43423;46.510;6.686;2023-08-06T04:20:33;96087.47;;;15.87;76.84
57594;BME280;43423;46.510;6.686;2023-08-06T04:22:58;96101.03;;;15.72;74.21
57594;BME280;43423;46.510;6.686;2023-08-06T04:25:24;96108.50;;;15.77;74.13
57594;BME280;43423;46.510;6.686;2023-08-06T04:27:50;96111.81;;;15.76;69.97
57594;BME280;43423;46.510;6.686;2023-08-06T04:30:15;96112.88;;;15.91;70.33
57594;BME280;43423;46.510;6.686;2023-08-06T04:32:41;96105.34;;;15.68;71.60
57594;BME280;43423;46.510;6.686;2023-08-06T04:35:07;96118.91;;;15.71;74.08
57594;BME280;43423;46.510;6.686;2023-08-06T04:37:33;96118.97;;;15.66;75.96
57594;BME280;43423;46.510;6.686;2023-08-06T04:39:58;96119.25;;;15.62;77.14
57594;BME280;43423;46.510;6.686;2023-08-06T04:42:24;96117.16;;;15.44;77.48
57594;BME280;43423;46.510;6.686;2023-08-06T04:44:50;96122.66;;;15.49;78.65
57594;BME280;43423;46.510;6.686;2023-08-06T04:47:16;96133.44;;;15.53;78.92
57594;BME280;43423;46.510;6.686;2023-08-06T04:49:41;96139.69;;;15.59;78.59
57594;BME280;43423;46.510;6.686;2023-08-06T04:52:07;96136.97;;;15.53;79.59
57594;BME280;43423;46.510;6.686;2023-08-06T04:54:32;96131.41;;;15.53;78.78
57594;BME280;43423;46.510;6.686;2023-08-06T04:56:58;96138.97;;;15.53;80.40
57594;BME280;43423;46.510;6.686;2023-08-06T04:59:23;96129.06;;;15.63;77.10
57594;BME280;43423;46.510;6.686;2023-08-06T05:01:49;96136.16;;;15.58;74.69
57594;BME280;43423;46.510;6.686;2023-08-06T05:04:14;96145.88;;;15.71;73.08
57594;BME280;43423;46.510;6.686;2023-08-06T05:06:40;96156.78;;;15.63;73.13
57594;BME280;43423;46.510;6.686;2023-08-06T05:09:06;96158.59;;;15.55;72.96
57594;BME280;43423;46.510;6.686;2023-08-06T05:11:32;96167.91;;;15.57;73.87
57594;BME280;43423;46.510;6.686;2023-08-06T05:13:57;96161.84;;;15.59;67.51
57594;BME280;43423;46.510;6.686;2023-08-06T05:16:23;96165.00;;;15.44;64.16
57594;BME280;43423;46.510;6.686;2023-08-06T05:18:49;96167.47;;;15.48;63.96
57594;BME280;43423;46.510;6.686;2023-08-06T05:21:14;96170.03;;;15.46;63.82
57594;BME280;43423;46.510;6.686;2023-08-06T05:23:41;96181.06;;;15.51;64.01
57594;BME280;43423;46.510;6.686;2023-08-06T05:26:07;96178.53;;;15.53;63.05
57594;BME280;43423;46.510;6.686;2023-08-06T05:28:32;96177.06;;;15.47;63.49
57594;BME280;43423;46.510;6.686;2023-08-06T05:30:58;96179.50;;;15.56;64.33
57594;BME280;43423;46.510;6.686;2023-08-06T05:33:24;96181.03;;;15.57;64.00
57594;BME280;43423;46.510;6.686;2023-08-06T05:35:49;96187.41;;;15.46;65.51
57594;BME280;43423;46.510;6.686;2023-08-06T05:38:17;96216.03;;;15.54;65.54
57594;BME280;43423;46.510;6.686;2023-08-06T05:40:43;96211.81;;;15.48;69.01
57594;BME280;43423;46.510;6.686;2023-08-06T05:43:08;96235.72;;;15.21;71.18
57594;BME280;43423;46.510;6.686;2023-08-06T05:45:34;96233.03;;;15.10;68.88
57594;BME280;43423;46.510;6.686;2023-08-06T05:47:59;96243.91;;;15.02;72.66
57594;BME280;43423;46.510;6.686;2023-08-06T05:50:25;96239.91;;;14.97;73.08
57594;BME280;43423;46.510;6.686;2023-08-06T05:52:51;96251.25;;;14.94;75.95
57594;BME280;43423;46.510;6.686;2023-08-06T05:55:20;96251.84;;;14.75;78.08
57594;BME280;43423;46.510;6.686;2023-08-06T05:57:46;96244.81;;;14.74;78.23
57594;BME280;43423;46.510;6.686;2023-08-06T06:00:11;96255.84;;;14.80;77.15
57594;BME280;43423;46.510;6.686;2023-08-06T06:02:37;96260.44;;;14.66;80.32
57594;BME280;43423;46.510;6.686;2023-08-06T06:05:03;96253.09;;;14.74;80.87
57594;BME280;43423;46.510;6.686;2023-08-06T06:07:28;96261.91;;;14.78;78.85
57594;BME280;43423;46.510;6.686;2023-08-06T06:09:54;96257.06;;;14.85;77.52
57594;BME280;43423;46.510;6.686;2023-08-06T06:12:19;96259.91;;;14.73;80.40
57594;BME280;43423;46.510;6.686;2023-08-06T06:14:47;96268.44;;;14.75;82.40
57594;BME280;43423;46.510;6.686;2023-08-06T06:17:13;96270.00;;;14.65;83.37
57594;BME280;43423;46.510;6.686;2023-08-06T06:19:39;96269.03;;;14.57;81.11
57594;BME280;43423;46.510;6.686;2023-08-06T06:22:04;96281.59;;;14.69;79.87
57594;BME280;43423;46.510;6.686;2023-08-06T06:24:30;96282.06;;;14.73;80.69
57594;BME280;43423;46.510;6.686;2023-08-06T06:26:55;96288.34;;;14.68;80.84
57594;BME280;43423;46.510;6.686;2023-08-06T06:29:21;96290.59;;;14.75;79.68
57594;BME280;43423;46.510;6.686;2023-08-06T06:31:46;96291.09;;;14.79;79.28
57594;BME280;43423;46.510;6.686;2023-08-06T06:34:12;96295.34;;;14.86;77.06
57594;BME280;43423;46.510;6.686;2023-08-06T06:36:37;96288.75;;;14.95;76.14
57594;BME280;43423;46.510;6.686;2023-08-06T06:39:03;96295.34;;;14.86;75.96
57594;BME280;43423;46.510;6.686;2023-08-06T06:41:28;96298.56;;;14.96;75.41
57594;BME280;43423;46.510;6.686;2023-08-06T06:43:57;96297.94;;;15.14;75.02
57594;BME280;43423;46.510;6.686;2023-08-06T06:46:22;96302.47;;;15.17;73.54
57594;BME280;43423;46.510;6.686;2023-08-06T06:48:48;96306.78;;;15.13;72.61
57594;BME280;43423;46.510;6.686;2023-08-06T06:51:13;96310.22;;;15.24;73.54
57594;BME280;43423;46.510;6.686;2023-08-06T06:53:39;96317.53;;;15.22;73.26
57594;BME280;43423;46.510;6.686;2023-08-06T06:56:04;96317.56;;;15.16;73.12
57594;BME280;43423;46.510;6.686;2023-08-06T06:58:31;96323.78;;;15.33;73.02
57594;BME280;43423;46.510;6.686;2023-08-06T07:00:56;96318.94;;;15.40;72.20
57594;BME280;43423;46.510;6.686;2023-08-06T07:03:22;96317.28;;;15.25;73.90
57594;BME280;43423;46.510;6.686;2023-08-06T07:05:48;96308.47;;;15.21;75.00
57594;BME280;43423;46.510;6.686;2023-08-06T07:08:13;96312.81;;;15.11;74.57
57594;BME280;43423;46.510;6.686;2023-08-06T07:10:41;96325.41;;;15.12;75.25
57594;BME280;43423;46.510;6.686;2023-08-06T07:13:07;96327.13;;;15.15;73.77
57594;BME280;43423;46.510;6.686;2023-08-06T07:15:33;96320.22;;;14.92;75.51
57594;BME280;43423;46.510;6.686;2023-08-06T07:17:58;96322.31;;;14.74;75.72
57594;BME280;43423;46.510;6.686;2023-08-06T07:20:24;96337.91;;;14.77;77.89
57594;BME280;43423;46.510;6.686;2023-08-06T07:22:49;96345.19;;;14.75;79.36
57594;BME280;43423;46.510;6.686;2023-08-06T07:25:16;96360.34;;;14.51;78.91
57594;BME280;43423;46.510;6.686;2023-08-06T07:27:41;96353.06;;;14.43;80.29
57594;BME280;43423;46.510;6.686;2023-08-06T07:30:07;96353.06;;;14.43;81.76
57594;BME280;43423;46.510;6.686;2023-08-06T07:32:33;96351.59;;;14.47;82.01
57594;BME280;43423;46.510;6.686;2023-08-06T07:34:59;96357.34;;;14.49;81.40
57594;BME280;43423;46.510;6.686;2023-08-06T07:37:29;96353.31;;;14.50;81.10
57594;BME280;43423;46.510;6.686;2023-08-06T07:39:55;96361.13;;;14.52;80.94
57594;BME280;43423;46.510;6.686;2023-08-06T07:42:21;96358.81;;;14.67;80.42
57594;BME280;43423;46.510;6.686;2023-08-06T07:44:52;96354.81;;;14.57;79.53
57594;BME280;43423;46.510;6.686;2023-08-06T07:47:18;96344.50;;;14.58;79.35
57594;BME280;43423;46.510;6.686;2023-08-06T07:49:44;96340.94;;;14.68;80.16
57594;BME280;43423;46.510;6.686;2023-08-06T07:52:09;96350.03;;;14.63;78.33
57594;BME280;43423;46.510;6.686;2023-08-06T07:54:36;96364.25;;;14.90;78.38
57594;BME280;43423;46.510;6.686;2023-08-06T07:57:02;96365.44;;;15.11;75.36
57594;BME280;43423;46.510;6.686;2023-08-06T07:59:27;96367.09;;;15.31;73.73
57594;BME280;43423;46.510;6.686;2023-08-06T08:01:53;96374.41;;;15.28;73.37
57594;BME280;43423;46.510;6.686;2023-08-06T08:04:18;96385.50;;;15.28;73.77
57594;BME280;43423;46.510;6.686;2023-08-06T08:06:44;96385.69;;;15.36;71.09
57594;BME280;43423;46.510;6.686;2023-08-06T08:09:09;96383.16;;;15.38;71.39
57594;BME280;43423;46.510;6.686;2023-08-06T08:11:35;96379.66;;;15.38;71.58
57594;BME280;43423;46.510;6.686;2023-08-06T08:14:00;96382.66;;;15.40;70.59
57594;BME280;43423;46.510;6.686;2023-08-06T08:16:29;96395.06;;;15.33;73.22
57594;BME280;43423;46.510;6.686;2023-08-06T08:18:57;96394.47;;;15.40;72.32
57594;BME280;43423;46.510;6.686;2023-08-06T08:21:23;96392.50;;;15.41;73.28
57594;BME280;43423;46.510;6.686;2023-08-06T08:23:52;96402.03;;;15.40;73.12
57594;BME280;43423;46.510;6.686;2023-08-06T08:26:18;96403.25;;;15.50;72.18
57594;BME280;43423;46.510;6.686;2023-08-06T08:28:43;96397.56;;;15.31;71.78
57594;BME280;43423;46.510;6.686;2023-08-06T08:31:10;96405.53;;;15.46;69.86
57594;BME280;43423;46.510;6.686;2023-08-06T08:33:39;96402.47;;;15.55;70.30
57594;BME280;43423;46.510;6.686;2023-08-06T08:36:05;96406.41;;;15.76;70.96
57594;BME280;43423;46.510;6.686;2023-08-06T08:38:30;96425.56;;;15.74;68.59
57594;BME280;43423;46.510;6.686;2023-08-06T08:40:56;96426.34;;;15.69;70.29
57594;BME280;43423;46.510;6.686;2023-08-06T08:43:23;96421.31;;;15.68;70.62
57594;BME280;43423;46.510;6.686;2023-08-06T08:45:53;96422.34;;;15.65;72.98
57594;BME280;43423;46.510;6.686;2023-08-06T08:48:24;96421.25;;;15.79;70.27
57594;BME280;43423;46.510;6.686;2023-08-06T08:50:52;96422.88;;;15.57;69.34
57594;BME280;43423;46.510;6.686;2023-08-06T08:53:18;96429.34;;;15.71;69.95
57594;BME280;43423;46.510;6.686;2023-08-06T08:55:47;96418.09;;;15.52;69.65
57594;BME280;43423;46.510;6.686;2023-08-06T08:58:13;96421.84;;;15.66;72.27
57594;BME280;43423;46.510;6.686;2023-08-06T09:00:41;96417.81;;;15.61;71.39
57594;BME280;43423;46.510;6.686;2023-08-06T09:03:07;96419.50;;;15.76;69.89
57594;BME280;43423;46.510;6.686;2023-08-06T09:05:33;96426.97;;;15.92;69.06
57594;BME280;43423;46.510;6.686;2023-08-06T09:08:03;96431.06;;;16.15;69.78
57594;BME280;43423;46.510;6.686;2023-08-06T09:10:29;96436.03;;;15.93;67.96
57594;BME280;43423;46.510;6.686;2023-08-06T09:12:57;96433.22;;;15.98;68.88
57594;BME280;43423;46.510;6.686;2023-08-06T09:15:24;96437.38;;;15.80;67.28
57594;BME280;43423;46.510;6.686;2023-08-06T09:17:52;96439.56;;;15.87;67.39
57594;BME280;43423;46.510;6.686;2023-08-06T09:20:18;96456.53;;;15.78;71.14
57594;BME280;43423;46.510;6.686;2023-08-06T09:22:43;96444.47;;;15.70;69.27
57594;BME280;43423;46.510;6.686;2023-08-06T09:25:11;96444.25;;;15.68;69.73
57594;BME280;43423;46.510;6.686;2023-08-06T09:27:39;96446.78;;;15.66;72.55
57594;BME280;43423;46.510;6.686;2023-08-06T09:30:08;96453.69;;;15.43;67.12
57594;BME280;43423;46.510;6.686;2023-08-06T09:32:47;96455.31;;;15.74;71.12
57594;BME280;43423;46.510;6.686;2023-08-06T09:35:17;96473.25;;;15.67;73.48
57594;BME280;43423;46.510;6.686;2023-08-06T09:37:43;96479.50;;;15.73;72.02
57594;BME280;43423;46.510;6.686;2023-08-06T09:40:29;96475.03;;;15.65;68.80
57594;BME280;43423;46.510;6.686;2023-08-06T09:42:55;96481.81;;;15.58;71.25
57594;BME280;43423;46.510;6.686;2023-08-06T09:45:21;96474.44;;;15.72;71.33
57594;BME280;43423;46.510;6.686;2023-08-06T09:47:50;96469.44;;;15.70;70.01
57594;BME280;43423;46.510;6.686;2023-08-06T09:50:19;96460.53;;;15.83;68.99
57594;BME280;43423;46.510;6.686;2023-08-06T09:52:47;96456.50;;;15.84;67.42
57594;BME280;43423;46.510;6.686;2023-08-06T09:55:16;96449.91;;;15.87;67.13
57594;BME280;43423;46.510;6.686;2023-08-06T09:57:43;96451.34;;;16.05;67.51
57594;BME280;43423;46.510;6.686;2023-08-06T10:00:10;96448.59;;;15.99;65.90
57594;BME280;43423;46.510;6.686;2023-08-06T10:02:40;96455.72;;;16.25;64.67
57594;BME280;43423;46.510;6.686;2023-08-06T10:05:07;96455.13;;;16.37;63.38
57594;BME280;43423;46.510;6.686;2023-08-06T10:07:35;96460.38;;;16.41;61.63
57594;BME280;43423;46.510;6.686;2023-08-06T10:10:02;96459.94;;;16.31;63.02
57594;BME280;43423;46.510;6.686;2023-08-06T10:12:36;96471.03;;;16.31;63.59
57594;BME280;43423;46.510;6.686;2023-08-06T10:15:05;96470.06;;;16.29;63.46
57594;BME280;43423;46.510;6.686;2023-08-06T10:17:33;96453.66;;;16.31;64.89
57594;BME280;43423;46.510;6.686;2023-08-06T10:20:00;96472.47;;;16.43;62.34
57594;BME280;43423;46.510;6.686;2023-08-06T10:22:25;96473.16;;;16.50;62.09
57594;BME280;43423;46.510;6.686;2023-08-06T10:24:54;96477.63;;;16.58;62.28
57594;BME280;43423;46.510;6.686;2023-08-06T10:27:30;96478.91;;;16.57;63.77
57594;BME280;43423;46.510;6.686;2023-08-06T10:30:26;96482.69;;;16.60;65.46
57594;BME280;43423;46.510;6.686;2023-08-06T10:32:54;96485.91;;;16.69;61.95
57594;BME280;43423;46.510;6.686;2023-08-06T10:35:29;96493.19;;;16.72;63.29
57594;BME280;43423;46.510;6.686;2023-08-06T10:38:19;96489.44;;;16.64;62.96
57594;BME280;43423;46.510;6.686;2023-08-06T10:41:01;96496.06;;;16.56;63.68
57594;BME280;43423;46.510;6.686;2023-08-06T10:43:35;96498.09;;;16.55;61.72
57594;BME280;43423;46.510;6.686;2023-08-06T10:46:02;96494.00;;;16.62;61.65
57594;BME280;43423;46.510;6.686;2023-08-06T10:48:40;96500.28;;;16.68;63.66
57594;BME280;43423;46.510;6.686;2023-08-06T10:51:11;96494.00;;;16.62;62.78
57594;BME280;43423;46.510;6.686;2023-08-06T10:53:37;96492.97;;;16.65;62.43
57594;BME280;43423;46.510;6.686;2023-08-06T10:58:42;96503.34;;;16.59;62.62
57594;BME280;43423;46.510;6.686;2023-08-06T11:01:09;96499.03;;;16.69;64.73
57594;BME280;43423;46.510;6.686;2023-08-06T11:03:34;96500.50;;;17.00;61.27
57594;BME280;43423;46.510;6.686;2023-08-06T11:06:01;96493.00;;;17.14;61.14
57594;BME280;43423;46.510;6.686;2023-08-06T11:08:29;96491.50;;;17.13;60.42
57594;BME280;43423;46.510;6.686;2023-08-06T11:10:55;96490.00;;;17.12;61.25
57594;BME280;43423;46.510;6.686;2023-08-06T11:13:32;96505.31;;;16.99;62.17
57594;BME280;43423;46.510;6.686;2023-08-06T11:15:58;96498.25;;;16.98;59.99
57594;BME280;43423;46.510;6.686;2023-08-06T11:18:23;96510.88;;;16.99;59.39
57594;BME280;43423;46.510;6.686;2023-08-06T11:20:49;96513.50;;;16.86;59.52
57594;BME280;43423;46.510;6.686;2023-08-06T11:23:15;96511.88;;;16.96;58.65
57594;BME280;43423;46.510;6.686;2023-08-06T11:25:44;96529.59;;;16.93;58.79
57594;BME280;43423;46.510;6.686;2023-08-06T11:28:11;96505.94;;;16.87;59.05
57594;BME280;43423;46.510;6.686;2023-08-06T11:30:37;96519.34;;;16.83;60.61
57594;BME280;43423;46.510;6.686;2023-08-06T11:33:03;96517.38;;;16.78;61.39
57594;BME280;43423;46.510;6.686;2023-08-06T11:35:28;96512.75;;;16.86;62.02
57594;BME280;43423;46.510;6.686;2023-08-06T11:37:54;96512.84;;;16.74;61.46
57594;BME280;43423;46.510;6.686;2023-08-06T11:40:20;96516.13;;;16.73;64.12
57594;BME280;43423;46.510;6.686;2023-08-06T11:42:46;96509.78;;;16.78;63.36
57594;BME280;43423;46.510;6.686;2023-08-06T11:45:12;96521.03;;;16.61;62.55
57594;BME280;43423;46.510;6.686;2023-08-06T11:47:38;96523.03;;;16.25;63.62
57594;BME280;43423;46.510;6.686;2023-08-06T11:50:07;96528.97;;;16.46;63.24
57594;BME280;43423;46.510;6.686;2023-08-06T11:52:33;96530.97;;;16.45;63.79
57594;BME280;43423;46.510;6.686;2023-08-06T11:55:06;96522.53;;;16.62;64.58
57594;BME280;43423;46.510;6.686;2023-08-06T11:57:37;96514.44;;;16.94;66.22
57594;BME280;43423;46.510;6.686;2023-08-06T12:00:04;96514.50;;;17.13;62.41
57594;BME280;43423;46.510;6.686;2023-08-06T12:02:32;96505.00;;;17.27;62.42
57594;BME280;43423;46.510;6.686;2023-08-06T12:05:19;96510.75;;;17.11;61.61
57594;BME280;43423;46.510;6.686;2023-08-06T12:07:56;96515.59;;;17.29;61.71
57594;BME280;43423;46.510;6.686;2023-08-06T12:10:24;96521.91;;;17.29;60.77
57594;BME280;43423;46.510;6.686;2023-08-06T12:12:49;96515.00;;;17.36;60.79
57594;BME280;43423;46.510;6.686;2023-08-06T12:15:16;96518.66;;;17.50;62.45
57594;BME280;43423;46.510;6.686;2023-08-06T12:17:42;96518.28;;;17.59;60.71
57594;BME280;43423;46.510;6.686;2023-08-06T12:20:08;96525.47;;;17.92;59.99
57594;BME280;43423;46.510;6.686;2023-08-06T12:22:34;96525.94;;;17.96;57.48
57594;BME280;43423;46.510;6.686;2023-08-06T12:25:02;96516.91;;;17.90;57.77
57594;BME280;43423;46.510;6.686;2023-08-06T12:27:37;96521.44;;;17.93;57.80
57594;BME280;43423;46.510;6.686;2023-08-06T12:30:05;96526.22;;;17.74;57.49
57594;BME280;43423;46.510;6.686;2023-08-06T12:32:31;96521.00;;;17.65;57.18
57594;BME280;43423;46.510;6.686;2023-08-06T12:34:57;96522.06;;;17.62;58.14
57594;BME280;43423;46.510;6.686;2023-08-06T12:37:24;96522.72;;;17.68;58.69
57594;BME280;43423;46.510;6.686;2023-08-06T12:39:50;96527.03;;;17.44;58.08
57594;BME280;43423;46.510;6.686;2023-08-06T12:42:15;96539.66;;;17.45;59.09
57594;BME280;43423;46.510;6.686;2023-08-06T12:44:41;96532.78;;;17.27;62.40
57594;BME280;43423;46.510;6.686;2023-08-06T12:47:09;96543.94;;;17.22;64.34
57594;BME280;43423;46.510;6.686;2023-08-06T12:49:35;96543.94;;;17.22;62.37
57594;BME280;43423;46.510;6.686;2023-08-06T12:52:01;96540.84;;;17.31;62.42
57594;BME280;43423;46.510;6.686;2023-08-06T12:54:27;96532.97;;;17.11;61.49
57594;BME280;43423;46.510;6.686;2023-08-06T12:56:53;96529.78;;;17.25;62.79
57594;BME280;43423;46.510;6.686;2023-08-06T12:59:19;96536.31;;;17.28;60.15
57594;BME280;43423;46.510;6.686;2023-08-06T13:01:45;96532.53;;;17.50;61.27